Time;durP1;ratioP1;P1;durP2;ratioP2;P2;SDS_P1;SDS_P2;PMS_P1;PMS_P2;Temp;Humidity;BMP_temperature;BMP_pressure;BME280_temperature;BME280_humidity;BME280_pressure;Samples;Min_cycle;Max_cycle;Signal;HPM_P1;HPM_P2
2022/04/04 00:03:20;;;;;;;13.08;4.55;;;;;;;2.25;60.49;100259.89;3534975;79;98817;-87
2022/04/04 00:08:25;;;;;;;8.77;3.53;;;;;;;2.25;60.64;100255.24;3538580;79;98611;-88
2022/04/04 00:13:28;;;;;;;10.10;4.17;;;;;;;2.28;61.40;100251.89;3558927;79;98633;-87
2022/04/04 00:18:29;;;;;;;10.65;4.33;;;;;;;2.29;61.98;100248.05;3600147;79;98936;-87
2022/04/04 00:23:30;;;;;;;9.70;4.13;;;;;;;2.29;63.77;100237.19;3580382;79;98747;-83
2022/04/04 00:28:33;;;;;;;10.87;4.43;;;;;;;2.26;65.32;100232.42;3577609;79;98987;-88
2022/04/04 00:33:37;;;;;;;10.68;4.20;;;;;;;2.22;66.44;100234.19;3548663;79;98650;-87
2022/04/04 00:38:41;;;;;;;10.28;4.37;;;;;;;2.17;67.76;100220.80;3602264;79;99137;-86
2022/04/04 00:43:54;;;;;;;9.60;4.37;;;;;;;2.09;69.38;100227.63;3543844;79;98955;-87
2022/04/04 00:48:52;;;;;;;12.68;6.00;;;;;;;2.00;70.16;100228.20;3531302;79;98393;-89
2022/04/04 00:53:54;;;;;;;9.97;4.13;;;;;;;1.92;71.12;100222.27;3513400;81;98921;-89
2022/04/04 00:58:56;;;;;;;14.75;6.15;;;;;;;1.87;71.06;100221.08;3508966;81;98634;-88
2022/04/04 01:04:01;;;;;;;10.28;4.55;;;;;;;1.83;72.15;100206.02;3544268;81;99413;-86
2022/04/04 01:09:04;;;;;;;11.65;4.17;;;;;;;1.83;71.33;100208.73;3444274;83;99108;-88
2022/04/04 01:14:09;;;;;;;12.47;4.50;;;;;;;1.86;71.07;100203.21;3437308;83;99297;-86
2022/04/04 01:19:10;;;;;;;12.03;4.50;;;;;;;1.87;71.61;100213.72;3416272;83;98708;-88
2022/04/04 01:24:20;;;;;;;12.70;4.80;;;;;;;1.89;71.66;100213.40;3429978;83;98943;-89
2022/04/04 01:29:22;;;;;;;10.30;4.72;;;;;;;1.89;72.18;100191.69;3455240;83;99491;-88
2022/04/04 01:34:32;;;;;;;13.95;4.90;;;;;;;1.90;71.47;100199.52;3473165;82;99291;-89
2022/04/04 01:39:33;;;;;;;11.43;4.50;;;;;;;1.92;72.11;100188.34;3368076;84;99630;-87
2022/04/04 01:44:35;;;;;;;9.05;3.75;;;;;;;1.92;72.11;100190.48;3410186;84;98720;-86
2022/04/04 01:49:38;;;;;;;9.55;4.28;;;;;;;1.91;72.36;100180.75;3556953;79;98418;-86
2022/04/04 01:54:41;;;;;;;9.63;3.77;;;;;;;1.94;72.65;100188.25;3453568;81;98657;-88
2022/04/04 01:59:43;;;;;;;10.68;3.72;;;;;;;1.95;73.49;100178.17;3569429;79;98469;-89
2022/04/04 02:04:44;;;;;;;7.17;3.90;;;;;;;1.96;73.13;100175.69;3559018;79;98643;-86
2022/04/04 02:09:45;;;;;;;10.37;4.10;;;;;;;1.98;73.90;100176.19;3597685;79;98494;-89
2022/04/04 02:14:50;;;;;;;8.13;3.75;;;;;;;2.00;74.71;100176.09;3549741;79;98974;-88
2022/04/04 02:19:51;;;;;;;11.17;4.73;;;;;;;1.98;74.32;100170.17;3553853;79;98640;-89
2022/04/04 02:24:53;;;;;;;8.93;3.93;;;;;;;1.99;74.32;100171.80;3577438;79;98562;-87
2022/04/04 02:29:55;;;;;;;10.80;4.05;;;;;;;2.00;74.95;100167.14;3577113;79;98700;-87
2022/04/04 02:34:57;;;;;;;11.57;3.83;;;;;;;2.00;75.39;100166.59;3560596;80;99037;-86
2022/04/04 02:39:58;;;;;;;8.30;3.90;;;;;;;1.98;75.64;100162.03;3526709;79;98711;-87
2022/04/04 02:44:59;;;;;;;7.43;3.50;;;;;;;1.98;75.93;100151.18;3572769;79;99237;-87
2022/04/04 02:50:00;;;;;;;7.80;3.67;;;;;;;1.96;76.03;100150.72;3576744;79;98599;-86
2022/04/04 03:00:26;;;;;;;8.05;3.30;;;;;;;1.98;77.12;100151.76;3416183;83;98360;-86
2022/04/04 03:05:31;;;;;;;7.47;3.53;;;;;;;1.97;77.47;100140.67;3471538;82;98563;-88
2022/04/04 03:10:33;;;;;;;8.88;3.30;;;;;;;1.94;77.94;100136.70;3513741;79;98688;-86
2022/04/04 03:15:37;;;;;;;7.47;3.33;;;;;;;1.93;78.07;100141.89;3527631;79;98971;-89
2022/04/04 03:21:01;;;;;;;8.23;3.72;;;;;;;1.93;78.12;100129.68;3564288;79;98586;-86
2022/04/04 03:26:02;;;;;;;7.53;3.70;;;;;;;1.91;78.36;100133.27;3544461;79;99217;-88
2022/04/04 03:31:05;;;;;;;8.60;3.65;;;;;;;1.92;79.26;100127.29;3544935;79;98678;-87
2022/04/04 03:36:11;;;;;;;7.60;3.60;;;;;;;1.92;78.94;100127.29;3493297;80;99416;-86
2022/04/04 03:41:15;;;;;;;7.67;3.40;;;;;;;1.91;79.16;100127.06;3483087;81;98593;-86
2022/04/04 03:46:17;;;;;;;10.78;3.92;;;;;;;1.92;79.78;100117.80;3499501;81;98605;-87
2022/04/04 03:51:18;;;;;;;9.58;4.33;;;;;;;1.96;80.34;100115.99;3500454;81;98724;-86
2022/04/04 03:56:20;;;;;;;11.05;4.12;;;;;;;1.96;80.34;100115.99;3520297;81;98661;-86
2022/04/04 04:01:23;;;;;;;10.65;3.77;;;;;;;1.98;79.90;100118.61;3531208;81;99057;-86
2022/04/04 04:06:24;;;;;;;7.33;3.70;;;;;;;2.00;80.34;100111.51;3517382;81;98931;-86
2022/04/04 04:11:27;;;;;;;10.47;4.17;;;;;;;1.99;80.39;100112.64;3517858;81;98606;-85
2022/04/04 04:16:31;;;;;;;6.67;3.60;;;;;;;1.97;80.55;100102.10;3479436;81;99849;-86
2022/04/04 04:21:35;;;;;;;11.25;3.77;;;;;;;1.94;80.10;100096.54;3487534;81;98995;-87
2022/04/04 04:26:36;;;;;;;7.12;3.55;;;;;;;1.95;80.81;100104.36;3503695;81;99532;-86
2022/04/04 04:31:37;;;;;;;8.53;3.65;;;;;;;1.94;80.49;100099.25;3512035;82;98500;-86
2022/04/04 04:36:39;;;;;;;12.30;4.47;;;;;;;1.92;80.60;100096.86;3441911;82;99359;-86
2022/04/04 04:41:41;;;;;;;9.20;4.37;;;;;;;1.91;80.60;100091.20;3489357;83;98966;-86
2022/04/04 04:46:58;;;;;;;7.70;3.40;;;;;;;1.92;81.36;100084.65;3522920;80;98902;-85
2022/04/04 04:52:00;;;;;;;9.70;4.00;;;;;;;1.93;81.04;100088.17;3419307;82;98786;-87
2022/04/04 04:57:07;;;;;;;10.43;4.08;;;;;;;1.95;80.81;100084.56;3379906;82;99402;-86
2022/04/04 05:02:17;;;;;;;12.13;3.92;;;;;;;1.98;80.70;100081.20;3449490;82;98999;-89
2022/04/04 05:07:19;;;;;;;13.38;4.00;;;;;;;2.02;80.88;100075.36;3478769;80;99122;-87
2022/04/04 05:12:22;;;;;;;8.83;4.07;;;;;;;2.06;80.81;100070.84;3494516;81;98826;-89
2022/04/04 05:17:23;;;;;;;8.70;4.60;;;;;;;2.10;80.93;100077.20;3491300;81;99658;-85
2022/04/04 05:22:30;;;;;;;15.88;5.75;;;;;;;2.14;81.00;100075.44;3480840;81;98758;-87
2022/04/04 05:27:31;;;;;;;9.70;4.87;;;;;;;2.18;80.75;100078.50;3467214;80;99497;-87
2022/04/04 05:32:37;;;;;;;12.27;4.90;;;;;;;2.25;80.53;100075.28;3602084;78;98786;-87
2022/04/04 05:37:39;;;;;;;9.70;5.72;;;;;;;2.28;80.52;100080.03;3413417;83;99246;-88
2022/04/04 05:42:43;;;;;;;11.07;5.17;;;;;;;2.34;80.50;100082.78;3475667;82;98778;-86
2022/04/04 05:47:44;;;;;;;11.28;5.05;;;;;;;2.39;80.45;100090.73;3475160;81;98776;-87
2022/04/04 05:52:51;;;;;;;9.70;4.90;;;;;;;2.41;79.87;100081.13;3500595;81;98731;-86
2022/04/04 05:57:52;;;;;;;10.07;5.20;;;;;;;2.51;79.87;100091.60;3494876;81;100635;-87
2022/04/04 06:02:56;;;;;;;11.55;5.62;;;;;;;2.57;79.46;100088.13;3509156;81;99294;-88
2022/04/04 06:07:58;;;;;;;15.30;5.60;;;;;;;2.63;79.11;100078.07;3490879;81;99730;-92
2022/04/04 06:12:59;;;;;;;11.37;5.00;;;;;;;2.69;79.25;100084.89;3479117;83;98743;-88
2022/04/04 06:18:00;;;;;;;14.28;5.78;;;;;;;2.69;79.27;100068.59;3479216;81;98722;-86
2022/04/04 06:23:01;;;;;;;11.78;4.65;;;;;;;2.72;79.29;100077.99;3497925;82;98700;-86
2022/04/04 06:28:03;;;;;;;14.07;7.05;;;;;;;2.71;78.99;100071.78;3498011;81;98641;-87
2022/04/04 06:33:06;;;;;;;14.50;5.40;;;;;;;2.71;79.00;100070.98;3507638;81;98757;-87
2022/04/04 06:38:10;;;;;;;14.47;5.75;;;;;;;2.76;79.02;100063.98;3475748;82;99133;-85
2022/04/04 06:43:12;;;;;;;13.78;5.53;;;;;;;2.87;78.98;100057.00;3469028;81;98792;-86
2022/04/04 06:48:20;;;;;;;21.57;7.33;;;;;;;3.01;78.77;100044.70;3490990;80;98781;-87
2022/04/04 06:53:21;;;;;;;12.17;5.87;;;;;;;3.11;78.34;100041.55;3478790;81;98757;-87
2022/04/04 06:58:26;;;;;;;13.90;6.17;;;;;;;3.25;78.05;100040.69;3460604;81;99715;-87
2022/04/04 07:03:27;;;;;;;12.10;5.90;;;;;;;3.43;77.62;100035.27;3438908;83;98765;-85
2022/04/04 07:09:08;;;;;;;21.30;5.73;;;;;;;3.58;77.22;100037.87;3413985;83;98620;-88
2022/04/04 07:14:10;;;;;;;15.30;5.55;;;;;;;3.71;76.66;100035.39;3455264;83;99224;-87
2022/04/04 07:19:15;;;;;;;10.43;4.33;;;;;;;3.88;76.03;100033.20;3475059;82;98835;-87
2022/04/04 07:24:20;;;;;;;8.85;4.15;;;;;;;4.03;75.45;100010.73;3455253;81;99364;-87
2022/04/04 07:29:25;;;;;;;11.20;6.10;;;;;;;4.19;74.94;99997.18;3492208;81;98616;-89
2022/04/04 07:34:27;;;;;;;21.17;4.57;;;;;;;4.35;74.42;99981.70;3465354;82;98597;-89
2022/04/04 07:39:28;;;;;;;10.48;3.80;;;;;;;4.53;73.03;99976.97;3475817;83;98829;-90
2022/04/04 07:44:29;;;;;;;11.43;4.42;;;;;;;4.64;72.36;99971.83;3438471;82;98739;-88
2022/04/04 07:49:30;;;;;;;10.05;3.45;;;;;;;4.76;71.92;99961.63;3485761;83;98658;-86
2022/04/04 07:54:31;;;;;;;13.13;3.27;;;;;;;4.93;71.82;99968.14;3508696;81;99118;-87
2022/04/04 07:59:32;;;;;;;15.03;4.07;;;;;;;5.13;70.82;99960.84;3472044;81;98546;-88
2022/04/04 08:04:39;;;;;;;8.10;3.80;;;;;;;5.35;69.57;99966.45;3499403;81;98604;-85
2022/04/04 08:09:41;;;;;;;;;;;;;;;5.53;68.54;99949.95;3480040;81;98771;-84
2022/04/04 08:14:42;;;;;;;13.90;3.77;;;;;;;5.69;66.92;99938.98;3474884;81;84655;-86
2022/04/04 08:19:44;;;;;;;8.20;3.92;;;;;;;5.79;66.84;99928.29;3461035;82;98697;-82
2022/04/04 08:24:48;;;;;;;45.45;8.68;;;;;;;6.11;65.93;99926.28;3476184;82;98633;-85
2022/04/04 08:29:53;;;;;;;31.95;5.80;;;;;;;6.46;65.04;99933.81;3482335;82;99428;-84
2022/04/04 08:34:55;;;;;;;6.13;3.03;;;;;;;6.62;63.59;99929.05;3499114;81;98568;-82
2022/04/04 08:39:57;;;;;;;9.60;4.10;;;;;;;6.82;63.00;99927.27;3475218;81;107573;-88
2022/04/04 08:45:03;;;;;;;10.13;3.50;;;;;;;7.04;62.86;99911.43;3447560;82;98523;-87
2022/04/04 08:50:10;;;;;;;9.23;3.93;;;;;;;7.28;61.84;99902.05;3470523;82;99132;-84
2022/04/04 08:55:15;;;;;;;7.05;3.40;;;;;;;7.77;61.53;99898.67;3413637;83;98898;-87
2022/04/04 09:00:17;;;;;;;9.08;3.22;;;;;;;8.10;60.29;99885.80;3467570;83;98658;-86
2022/04/04 09:05:19;;;;;;;7.72;3.35;;;;;;;8.43;58.67;99877.59;3427336;82;99152;-85
2022/04/04 09:10:26;;;;;;;15.77;4.47;;;;;;;8.74;57.86;99868.11;3404367;83;98765;-89
2022/04/04 09:15:49;;;;;;;17.65;4.22;;;;;;;9.04;54.50;99866.80;3415713;82;98908;-86
2022/04/04 09:20:55;;;;;;;11.90;3.37;;;;;;;9.12;52.85;99862.16;3444550;81;99214;-83
2022/04/04 09:26:00;;;;;;;322.48;31.07;;;;;;;9.11;53.41;99844.89;3479003;81;98767;-85
2022/04/04 09:31:18;;;;;;;12.43;3.80;;;;;;;9.16;50.46;99842.40;3370209;81;98870;-82
2022/04/04 09:36:27;;;;;;;26.25;5.65;;;;;;;9.31;50.88;99820.14;3132363;87;98757;-85
2022/04/04 09:41:40;;;;;;;8.20;3.87;;;;;;;9.56;48.52;99807.34;3132917;89;99009;-83
2022/04/04 09:53:01;;;;;;;8.90;3.47;;;;;;;9.65;50.95;99781.66;3059519;92;99066;-90
2022/04/04 09:58:19;;;;;;;;;;;;;;;;;;;;;
2022/04/04 10:03:15;;;;;;;14.33;3.72;;;;;;;9.84;48.03;99747.58;3027492;87;85205;-85
2022/04/04 10:08:28;;;;;;;10.97;3.60;;;;;;;9.77;47.74;99758.56;3034927;88;98745;-89
2022/04/04 10:13:32;;;;;;;10.35;4.05;;;;;;;9.72;47.68;99717.72;3315536;82;98760;-89
2022/04/04 10:18:44;;;;;;;13.85;4.12;;;;;;;9.68;46.32;99718.29;3473910;82;98410;-88
2022/04/04 10:23:51;;;;;;;17.70;4.93;;;;;;;9.73;47.10;99698.11;3494399;81;98751;-86
2022/04/04 10:29:14;;;;;;;16.00;4.00;;;;;;;10.03;46.69;99688.16;3493573;81;99388;-87
2022/04/04 10:34:22;;;;;;;57.35;7.40;;;;;;;10.42;45.10;99671.88;3503854;81;99086;-84
2022/04/04 10:39:51;;;;;;;15.60;3.58;;;;;;;10.56;42.73;99653.20;3454971;81;98952;-90
2022/04/04 10:45:10;;;;;;;14.60;3.53;;;;;;;10.44;42.92;99646.16;3508056;80;99576;-91
2022/04/04 10:50:37;;;;;;;10.98;3.83;;;;;;;10.47;43.68;99634.34;3468545;80;99487;-88
2022/04/04 10:55:48;;;;;;;8.10;3.20;;;;;;;10.60;43.32;99619.59;3471118;81;99112;-84
2022/04/04 11:01:17;;;;;;;17.75;3.60;;;;;;;10.78;42.20;99599.11;3510585;80;99082;-85
2022/04/04 11:12:15;;;;;;;8.90;3.20;;;;;;;10.93;41.00;99588.25;3441414;82;99144;-90
2022/04/04 11:17:36;;;;;;;10.43;3.70;;;;;;;10.78;41.78;99574.92;3437862;82;98861;-86
2022/04/04 11:22:51;;;;;;;16.95;4.35;;;;;;;10.73;41.24;99578.88;3472119;80;99001;-85
2022/04/04 11:27:49;;;;;;;19.03;4.27;;;;;;;10.80;40.61;99562.94;3484135;80;98958;-81
2022/04/04 11:32:57;;;;;;;25.07;5.80;;;;;;;10.74;39.72;99562.55;3432055;83;99039;-86
2022/04/04 11:38:12;;;;;;;14.03;4.40;;;;;;;10.82;40.07;99537.16;3500805;79;99718;-83
2022/04/04 11:43:19;;;;;;;17.47;4.63;;;;;;;10.86;40.55;99526.32;3372096;83;100284;-85
2022/04/04 11:48:26;;;;;;;23.83;4.62;;;;;;;10.75;40.19;99508.30;3395716;83;99045;-86
2022/04/04 11:53:37;;;;;;;18.70;4.05;;;;;;;10.88;39.79;99489.56;3413282;83;99195;-86
2022/04/04 11:59:16;;;;;;;17.20;4.00;;;;;;;10.73;38.07;99483.93;3450140;82;99502;-86
2022/04/04 12:04:15;;;;;;;22.65;4.25;;;;;;;10.44;38.49;99473.45;3320059;85;99172;-83
2022/04/04 12:09:31;;;;;;;22.30;3.87;;;;;;;10.23;38.17;99450.94;3502286;82;98840;-82
2022/04/04 12:14:44;;;;;;;27.27;4.30;;;;;;;10.22;38.27;99438.95;3430753;83;98987;-86
2022/04/04 12:19:49;;;;;;;28.83;6.03;;;;;;;10.11;37.44;99438.20;3467977;82;98732;-84
2022/04/04 12:25:02;;;;;;;16.12;3.75;;;;;;;10.14;38.29;99412.67;3490145;82;99045;-81
2022/04/04 12:30:06;;;;;;;34.30;5.40;;;;;;;10.20;38.74;99380.84;3439568;82;99038;-88
2022/04/04 12:35:15;;;;;;;18.87;3.70;;;;;;;10.32;38.11;99374.88;3468378;82;99214;-90
2022/04/04 12:40:31;;;;;;;39.38;6.10;;;;;;;10.32;37.28;99359.18;3457380;82;99328;-83
2022/04/04 12:45:47;;;;;;;41.55;7.10;;;;;;;10.40;37.02;99349.70;3421532;81;99052;-88
2022/04/04 12:50:53;;;;;;;22.40;4.37;;;;;;;10.22;37.06;99339.97;3483791;81;99426;-86
2022/04/04 12:56:16;;;;;;;25.85;3.87;;;;;;;10.20;37.62;99321.11;3417322;82;99572;-83
2022/04/04 13:01:27;;;;;;;23.32;4.22;;;;;;;10.16;37.38;99303.88;3267134;84;98873;-86
2022/04/04 13:06:54;;;;;;;16.80;4.97;;;;;;;10.08;37.45;99302.94;3267031;85;99289;-85
2022/04/04 13:18:00;;;;;;;32.95;6.12;;;;;;;9.98;37.01;99267.40;3354338;83;98814;-87
2022/04/04 13:23:03;;;;;;;33.50;6.40;;;;;;;9.94;36.38;99275.48;3356049;83;98753;-88
2022/04/04 13:28:11;;;;;;;50.00;10.28;;;;;;;9.84;36.47;99251.58;3428486;81;98691;-85
2022/04/04 13:33:12;;;;;;;27.07;7.53;;;;;;;9.77;36.39;99235.14;3549002;80;98923;-90
2022/04/04 13:38:14;;;;;;;38.08;8.40;;;;;;;9.69;36.51;99207.49;3539259;80;98633;-86
2022/04/04 13:43:15;;;;;;;35.87;6.70;;;;;;;9.78;36.09;99227.88;3512980;79;99310;-89
2022/04/04 13:48:18;;;;;;;19.87;5.30;;;;;;;9.84;35.50;99181.52;3571127;79;98621;-86
2022/04/04 13:53:21;;;;;;;35.17;6.70;;;;;;;9.87;36.26;99166.98;3598546;79;99196;-83
2022/04/04 13:58:22;;;;;;;32.93;6.17;;;;;;;9.93;35.37;99170.87;3462958;81;98545;-89
2022/04/04 14:03:25;;;;;;;72.80;11.30;;;;;;;9.89;35.80;99147.53;3494784;82;98663;-88
2022/04/04 14:08:27;;;;;;;28.55;7.03;;;;;;;9.92;34.96;99138.47;3568910;79;98715;-89
2022/04/04 14:13:28;;;;;;;23.70;4.97;;;;;;;9.86;35.24;99136.58;3579303;79;98597;-87
2022/04/04 14:18:30;;;;;;;41.98;9.98;;;;;;;9.80;35.81;99113.43;3446660;82;98703;-91
2022/04/04 14:23:35;;;;;;;26.30;5.65;;;;;;;9.71;34.68;99113.12;3468858;82;98612;-90
2022/04/04 14:28:57;;;;;;;40.83;6.30;;;;;;;9.68;35.38;99095.47;3449309;82;99107;-91
2022/04/04 14:33:53;;;;;;;28.45;8.10;;;;;;;9.60;34.68;99073.95;3356023;82;98665;-89
2022/04/04 14:38:56;;;;;;;29.37;4.90;;;;;;;9.63;35.36;99083.53;3436407;82;98721;-93
2022/04/04 14:44:07;;;;;;;32.65;6.42;;;;;;;9.59;35.19;99062.17;3418538;82;98838;-93
2022/04/04 14:49:21;;;;;;;38.35;7.87;;;;;;;9.56;35.67;99067.11;3230587;86;98907;-90
2022/04/04 14:54:36;;;;;;;26.37;6.22;;;;;;;9.53;35.89;99047.89;3297353;84;98851;-93
2022/04/04 14:59:29;;;;;;;29.63;7.27;;;;;;;9.51;36.00;99046.94;3361582;84;98655;-90
2022/04/04 15:04:35;;;;;;;40.17;6.60;;;;;;;9.30;35.77;99048.45;3359938;82;99682;-89
2022/04/04 15:09:36;;;;;;;76.92;10.23;;;;;;;9.17;36.60;99032.84;3361615;84;122031;-90
2022/04/04 15:14:38;;;;;;;34.63;7.03;;;;;;;8.96;37.09;99035.11;3404255;82;99580;-87
2022/04/04 15:19:43;;;;;;;25.77;5.87;;;;;;;8.81;37.32;99035.56;3431287;82;99556;-88
2022/04/04 15:24:49;;;;;;;34.80;7.27;;;;;;;8.68;38.74;99037.95;3410713;82;99266;-92
2022/04/04 15:29:54;;;;;;;40.55;8.33;;;;;;;8.55;39.66;99052.48;3434554;82;98907;-90
2022/04/04 15:34:56;;;;;;;45.70;8.73;;;;;;;8.26;41.69;99018.91;3387168;83;98926;-89
2022/04/04 15:45:57;;;;;;;31.63;8.50;;;;;;;7.68;46.36;99047.30;3279165;85;99139;-91
2022/04/04 15:51:29;;;;;;;38.95;6.72;;;;;;;7.33;48.44;99015.02;3027840;90;98557;-91
2022/04/04 15:56:41;;;;;;;;;;;;;;;;;;;;;
2022/04/04 16:01:48;;;;;;;26.33;6.78;;;;;;;7.04;48.70;99000.49;3020692;92;98779;-85
2022/04/04 16:12:53;;;;;;;;;;;;;;;;;;;;;
2022/04/04 16:18:07;;;;;;;43.68;9.80;;;;;;;6.92;48.41;98978.98;3011636;91;99067;-88
2022/04/04 16:23:22;;;;;;;37.58;8.75;;;;;;;6.89;48.40;98968.84;3052768;90;98656;-92
2022/04/04 16:28:26;;;;;;;32.43;10.20;;;;;;;6.88;48.37;98964.52;3401834;81;98809;-87
2022/04/04 16:33:33;;;;;;;33.80;8.47;;;;;;;6.86;48.62;98957.87;3456614;80;98862;-85
2022/04/04 16:39:18;;;;;;;;;;;;;;;;;;;;;
2022/04/04 16:44:12;;;;;;;63.87;11.53;;;;;;;6.79;49.43;98936.78;3236953;86;99147;-87
2022/04/04 16:49:29;;;;;;;33.83;8.15;;;;;;;6.72;50.01;98946.31;3297797;86;98880;-89
2022/04/04 16:54:45;;;;;;;29.87;9.30;;;;;;;6.67;50.45;98915.28;3133424;89;99135;-94
2022/04/04 16:59:49;;;;;;;40.92;10.43;;;;;;;6.64;52.50;98942.01;3185448;90;98989;-85
2022/04/04 17:04:52;;;;;;;31.87;10.60;;;;;;;6.45;55.54;98960.69;3457214;81;98888;-88
2022/04/04 17:09:58;;;;;;;21.30;10.98;;;;;;;6.14;58.20;98907.48;3510516;80;98900;-85
2022/04/04 17:15:07;;;;;;;27.73;11.63;;;;;;;6.00;58.32;98898.45;3460684;81;99582;-90
2022/04/04 17:20:22;;;;;;;23.10;10.68;;;;;;;5.81;60.80;98899.53;3511241;80;98769;-89
2022/04/04 17:25:42;;;;;;;30.57;16.00;;;;;;;5.55;64.80;98897.57;3536473;80;98854;-87
2022/04/04 17:30:47;;;;;;;33.80;14.45;;;;;;;5.25;68.98;98901.84;3451404;83;98660;-87
2022/04/04 17:35:49;;;;;;;28.73;14.87;;;;;;;4.99;70.49;98889.77;3444525;82;98761;-86
2022/04/04 17:42:06;;;;;;;;;;;;;;;;;;;;;
2022/04/04 17:46:45;;;;;;;23.75;16.30;;;;;;;4.52;75.16;98884.27;3423584;79;98265;-78
2022/04/04 17:51:47;;;;;;;34.05;17.87;;;;;;;4.15;80.68;98884.06;3600700;80;98717;-79
2022/04/04 17:56:52;;;;;;;34.65;19.42;;;;;;;3.85;82.60;98869.12;3608642;80;98726;-80
2022/04/04 18:01:54;;;;;;;28.27;17.73;;;;;;;3.62;84.90;98850.76;3551989;80;98845;-82
2022/04/04 18:06:57;;;;;;;30.55;15.78;;;;;;;3.48;84.63;98851.91;3547535;80;99253;-84
2022/04/04 18:12:00;;;;;;;33.00;16.73;;;;;;;3.36;85.88;98841.27;3610064;79;98659;-80
2022/04/04 18:17:01;;;;;;;22.02;15.65;;;;;;;3.29;87.04;98834.34;3624073;79;98693;-82
2022/04/04 18:22:03;;;;;;;28.73;16.40;;;;;;;3.17;87.60;98827.01;3576844;79;98681;-82
2022/04/04 18:27:05;;;;;;;36.45;17.50;;;;;;;3.08;89.34;98812.33;3555832;80;98671;-82
2022/04/04 18:32:08;;;;;;;22.93;14.33;;;;;;;2.99;90.49;98824.58;3560319;80;98631;-83
2022/04/04 18:37:10;;;;;;;27.55;16.48;;;;;;;2.91;90.42;98810.70;3508124;80;98658;-83
2022/04/04 18:42:12;;;;;;;24.18;15.20;;;;;;;2.84;92.15;98803.21;3542171;81;98602;-82
2022/04/04 18:47:16;;;;;;;22.73;14.68;;;;;;;2.76;93.59;98794.76;3611143;78;98522;-86
2022/04/04 18:52:17;;;;;;;24.80;13.45;;;;;;;2.72;94.02;98791.76;3671786;79;98819;-86
2022/04/04 18:57:20;;;;;;;24.55;14.80;;;;;;;2.69;93.59;98770.19;3616287;79;98638;-85
2022/04/04 19:02:25;;;;;;;20.40;13.20;;;;;;;2.66;95.34;98763.34;3473984;79;98234;-85
2022/04/04 19:07:25;;;;;;;22.70;14.05;;;;;;;2.63;95.24;98759.42;3575224;79;98561;-87
2022/04/04 19:12:27;;;;;;;23.12;15.05;;;;;;;2.59;95.58;98738.24;3686090;78;98957;-86
2022/04/04 19:17:28;;;;;;;21.00;13.72;;;;;;;2.57;96.23;98743.23;3660834;78;98723;-89
2022/04/04 19:22:31;;;;;;;22.30;15.27;;;;;;;2.55;97.03;98733.88;3643912;79;98683;-87
2022/04/04 19:27:34;;;;;;;22.02;13.83;;;;;;;2.51;97.25;98724.33;3647524;78;98688;-89
2022/04/04 19:32:36;;;;;;;23.53;15.27;;;;;;;2.49;98.25;98733.43;3660336;79;98465;-88
2022/04/04 19:37:42;;;;;;;20.82;12.90;;;;;;;2.50;97.53;98729.56;3505781;80;135785;-86
2022/04/04 19:42:44;;;;;;;21.57;13.80;;;;;;;2.48;98.25;98711.50;3601973;79;98755;-84
2022/04/04 19:47:49;;;;;;;21.27;13.70;;;;;;;2.47;98.54;98712.63;3614310;79;98664;-87
2022/04/04 19:52:51;;;;;;;21.52;14.18;;;;;;;2.48;98.76;98701.20;3637097;79;99028;-86
2022/04/04 19:57:54;;;;;;;20.77;12.93;;;;;;;2.48;98.65;98672.70;3638797;79;99047;-85
2022/04/04 20:03:00;;;;;;;24.67;15.58;;;;;;;2.47;98.73;98689.55;3632112;79;99245;-85
2022/04/04 20:08:01;;;;;;;23.83;15.50;;;;;;;2.50;98.60;98675.27;3662375;79;98567;-86
2022/04/04 20:13:05;;;;;;;25.70;15.80;;;;;;;2.53;98.89;98648.75;3643971;79;98509;-85
2022/04/04 20:18:07;;;;;;;24.32;16.70;;;;;;;2.58;99.84;98642.97;3638438;79;98727;-85
2022/04/04 20:23:08;;;;;;;28.50;18.47;;;;;;;2.63;99.93;98631.03;3640677;79;98562;-84
2022/04/04 20:28:11;;;;;;;26.00;17.52;;;;;;;2.69;99.42;98623.53;3643016;79;98950;-86
2022/04/04 20:33:15;;;;;;;25.35;16.57;;;;;;;2.76;99.63;98617.42;3592452;79;98888;-91
2022/04/04 20:38:17;;;;;;;26.65;17.87;;;;;;;2.80;99.89;98604.67;3640189;79;98814;-94
2022/04/04 20:43:21;;;;;;;22.30;16.80;;;;;;;2.85;100.00;98590.77;3649928;79;98739;-89
2022/04/04 20:48:25;;;;;;;23.90;16.67;;;;;;;2.91;99.65;98596.08;3640124;78;98957;-89
2022/04/04 20:53:26;;;;;;;23.45;16.52;;;;;;;2.97;99.50;98601.38;3631383;78;98823;-85
2022/04/04 20:58:28;;;;;;;22.87;16.33;;;;;;;3.01;99.71;98585.31;3618249;79;99004;-89
2022/04/04 21:03:30;;;;;;;23.57;15.33;;;;;;;3.06;99.43;98590.42;3621330;79;98949;-81
2022/04/04 21:08:31;;;;;;;22.02;15.20;;;;;;;3.10;99.59;98572.79;3621740;79;98755;-86
2022/04/04 21:13:32;;;;;;;23.65;15.00;;;;;;;3.12;99.18;98570.50;3618945;79;98850;-86
2022/04/04 21:18:33;;;;;;;19.23;13.27;;;;;;;3.16;99.77;98576.77;3628705;79;99063;-91
2022/04/04 21:23:34;;;;;;;21.20;14.30;;;;;;;3.18;99.42;98576.56;3551883;80;99536;-87
2022/04/04 21:28:37;;;;;;;21.20;13.98;;;;;;;3.23;99.14;98564.00;3561875;79;99591;-86
2022/04/04 21:33:39;;;;;;;21.30;14.60;;;;;;;3.24;98.62;98550.64;3444069;81;98885;-85
2022/04/04 21:38:40;;;;;;;23.55;15.18;;;;;;;3.33;98.41;98536.15;3551061;81;99304;-88
2022/04/04 21:43:41;;;;;;;22.22;15.05;;;;;;;3.38;98.20;98539.88;3558922;81;98825;-88
2022/04/04 21:48:42;;;;;;;20.33;14.73;;;;;;;3.40;98.58;98553.91;3665428;79;98876;-85
2022/04/04 21:53:43;;;;;;;19.80;13.67;;;;;;;3.42;98.57;98537.98;3659904;79;99377;-89
2022/04/04 21:58:51;;;;;;;21.13;13.80;;;;;;;3.46;98.61;98532.58;3657923;79;99557;-85
2022/04/04 22:03:52;;;;;;;22.57;15.87;;;;;;;3.50;99.06;98530.67;3662714;79;99176;-89
2022/04/04 22:08:53;;;;;;;21.17;14.93;;;;;;;3.54;99.28;98524.66;3661590;79;99225;-86
2022/04/04 22:13:54;;;;;;;21.27;15.07;;;;;;;3.57;99.51;98537.52;3662585;79;99333;-84
2022/04/04 22:18:57;;;;;;;22.00;16.25;;;;;;;3.61;99.11;98519.30;3668270;79;98830;-85
2022/04/04 22:23:59;;;;;;;21.97;15.60;;;;;;;3.64;100.00;98523.97;3669080;79;98981;-91
2022/04/04 22:29:00;;;;;;;24.33;16.67;;;;;;;3.69;99.77;98516.26;3644035;78;99847;-84
2022/04/04 22:34:01;;;;;;;22.60;15.93;;;;;;;3.75;99.81;98516.11;3665983;79;98734;-85
2022/04/04 22:39:02;;;;;;;22.48;15.58;;;;;;;3.80;99.37;98502.16;3675802;79;99323;-87
2022/04/04 22:44:04;;;;;;;23.37;16.37;;;;;;;3.86;99.77;98491.11;3650152;79;98679;-84
2022/04/04 22:49:05;;;;;;;21.02;15.28;;;;;;;3.91;99.74;98488.04;3674063;79;98637;-86
2022/04/04 22:54:06;;;;;;;21.25;15.13;;;;;;;3.98;99.03;98503.04;3678806;79;98859;-84
2022/04/04 22:59:07;;;;;;;20.27;14.87;;;;;;;4.05;99.57;98490.06;3678551;79;98643;-86
2022/04/04 23:04:08;;;;;;;21.13;15.60;;;;;;;4.09;98.88;98503.88;3665428;79;99295;-87
2022/04/04 23:15:25;;;;;;;21.57;13.80;;;;;;;4.18;99.38;98489.92;3657472;78;98818;-85
2022/04/04 23:20:26;;;;;;;21.87;14.93;;;;;;;4.21;98.99;98484.50;3668129;79;98695;-84
2022/04/04 23:25:27;;;;;;;23.60;15.07;;;;;;;4.26;98.88;98490.18;3668008;79;98753;-85
2022/04/04 23:30:28;;;;;;;20.57;14.53;;;;;;;4.30;98.98;98489.02;3675380;79;99407;-86
2022/04/04 23:35:29;;;;;;;22.50;15.80;;;;;;;4.34;99.35;98495.27;3683845;78;98718;-85
2022/04/04 23:40:31;;;;;;;22.60;15.00;;;;;;;4.36;99.02;98490.22;3654065;79;99433;-84
2022/04/04 23:45:32;;;;;;;20.63;14.27;;;;;;;4.38;99.42;98485.75;3675559;79;99141;-84
2022/04/04 23:50:33;;;;;;;19.70;14.10;;;;;;;4.41;99.43;98491.21;3681148;79;99080;-84
2022/04/04 23:55:34;;;;;;;25.00;16.13;;;;;;;4.43;99.21;98488.11;3658564;79;98714;-84
